Time;durP1;ratioP1;P1;durP2;ratioP2;P2;SDS_P1;SDS_P2;PMS_P1;PMS_P2;Temp;Humidity;BMP_temperature;BMP_pressure;BME280_temperature;BME280_humidity;BME280_pressure;Samples;Min_cycle;Max_cycle;Signal;HPM_P1;HPM_P2
2023/10/09 00:02:14;;;;;;;5.38;1.33;;;;;;;14.21;69.05;101292.84;7387806;19;20364;-61
2023/10/09 00:04:42;;;;;;;4.65;1.23;;;;;;;14.21;68.81;101282.16;7393329;19;20365;-60
2023/10/09 00:07:11;;;;;;;4.18;1.25;;;;;;;14.18;68.37;101285.22;7389789;19;20340;-62
2023/10/09 00:09:48;;;;;;;3.40;1.17;;;;;;;14.16;68.98;101275.75;7390868;19;20388;-60
2023/10/09 00:12:22;;;;;;;2.40;1.00;;;;;;;14.16;68.96;101276.56;7380790;19;20376;-60
2023/10/09 00:14:55;;;;;;;2.55;1.20;;;;;;;14.17;69.22;101266.72;7391384;19;20713;-62
2023/10/09 00:17:23;;;;;;;3.45;1.30;;;;;;;14.19;69.32;101257.50;7391057;19;20372;-60
2023/10/09 00:19:59;;;;;;;3.25;1.08;;;;;;;14.19;69.33;101257.50;7390072;19;20356;-62
2023/10/09 00:22:28;;;;;;;3.20;1.10;;;;;;;14.20;69.19;101242.34;7391607;19;20392;-61
2023/10/09 00:25:23;;;;;;;3.67;1.30;;;;;;;14.18;69.36;101231.03;7392135;19;20372;-61
2023/10/09 00:27:46;;;;;;;2.60;1.27;;;;;;;14.15;69.41;101224.22;7392858;19;20408;-61
2023/10/09 00:30:29;;;;;;;4.03;1.48;;;;;;;14.18;69.55;101231.03;7392525;19;20348;-61
2023/10/09 00:33:00;;;;;;;5.47;1.50;;;;;;;14.17;69.71;101208.84;7392455;19;20374;-62
2023/10/09 00:35:37;;;;;;;3.63;1.58;;;;;;;14.18;69.91;101205.19;7401722;19;20740;-60
2023/10/09 00:41:04;;;;;;;2.72;1.10;;;;;;;14.17;70.21;101198.16;7399199;19;20368;-62
2023/10/09 00:43:31;;;;;;;2.60;1.27;;;;;;;14.16;70.34;101191.19;7399699;19;20361;-60
2023/10/09 00:48:59;;;;;;;2.38;1.15;;;;;;;14.13;71.08;101180.91;7398116;19;20368;-61
2023/10/09 00:51:26;;;;;;;2.63;1.17;;;;;;;14.15;71.26;101184.19;7394210;19;20379;-61
2023/10/09 00:53:59;;;;;;;3.13;1.50;;;;;;;14.15;71.29;101178.84;7393269;19;20348;-61
2023/10/09 00:58:59;;;;;;;3.08;1.23;;;;;;;14.17;71.68;101165.34;7399919;19;20371;-62
2023/10/09 01:01:34;;;;;;;4.20;1.25;;;;;;;14.16;71.57;101153.03;7398728;19;20769;-61
2023/10/09 01:04:06;;;;;;;2.53;1.10;;;;;;;14.19;72.03;101158.78;7396123;19;20372;-61
2023/10/09 01:06:35;;;;;;;2.63;1.35;;;;;;;14.21;71.56;101171.94;7398550;19;20332;-61
2023/10/09 01:09:12;;;;;;;3.80;1.40;;;;;;;14.21;71.36;101183.44;7396258;19;20791;-60
2023/10/09 01:11:47;;;;;;;3.53;1.13;;;;;;;14.23;71.41;101191.28;7391914;19;20384;-61
2023/10/09 01:14:21;;;;;;;4.28;1.30;;;;;;;14.28;71.38;101188.88;7396958;19;20680;-62
2023/10/09 01:16:48;;;;;;;3.22;1.30;;;;;;;14.31;71.19;101185.00;7396617;19;20377;-60
2023/10/09 01:19:23;;;;;;;2.93;1.10;;;;;;;14.36;71.26;101187.94;7393907;19;20735;-62
2023/10/09 01:21:51;;;;;;;2.72;1.00;;;;;;;14.41;71.05;101172.19;7395622;19;20356;-62
2023/10/09 01:24:26;;;;;;;4.60;1.50;;;;;;;14.41;71.00;101169.53;7388026;19;20710;-61
2023/10/09 01:26:57;;;;;;;2.47;1.15;;;;;;;14.41;71.10;101161.53;7393997;19;20363;-62
2023/10/09 01:29:27;;;;;;;3.95;1.30;;;;;;;14.40;71.04;101165.19;7391700;19;20715;-61
2023/10/09 01:31:55;;;;;;;2.50;1.20;;;;;;;14.40;71.30;101163.34;7390034;19;20397;-61
2023/10/09 01:34:41;;;;;;;3.53;1.10;;;;;;;14.38;71.22;101153.88;7394960;19;20348;-61
2023/10/09 01:37:18;;;;;;;5.18;1.30;;;;;;;14.36;71.49;101153.22;7394673;19;20341;-61
2023/10/09 01:39:51;;;;;;;3.60;1.30;;;;;;;14.35;71.55;101164.94;7392480;19;20360;-62
2023/10/09 01:42:34;;;;;;;2.47;1.23;;;;;;;14.34;71.58;101163.28;7394204;19;20353;-61
2023/10/09 01:45:46;;;;;;;3.58;1.10;;;;;;;14.28;71.92;101146.19;7392240;19;21113;-59
2023/10/09 01:47:56;;;;;;;3.63;1.30;;;;;;;14.24;72.46;101137.72;7390342;19;20432;-59
2023/10/09 01:50:30;;;;;;;3.33;1.25;;;;;;;14.22;72.75;101117.59;7393825;19;20385;-59
2023/10/09 01:53:02;;;;;;;2.45;1.40;;;;;;;14.17;73.34;101115.44;7394273;19;20377;-60
2023/10/09 01:55:38;;;;;;;2.40;1.20;;;;;;;14.14;73.64;101112.34;7395013;19;20388;-60
2023/10/09 02:00:56;;;;;;;2.53;1.38;;;;;;;14.03;74.57;101113.69;7391548;19;20523;-60
2023/10/09 02:03:25;;;;;;;3.17;1.27;;;;;;;14.01;74.96;101113.03;7392408;19;20859;-60
2023/10/09 02:06:17;;;;;;;4.00;1.52;;;;;;;13.98;75.51;101103.56;7391685;19;20388;-58
2023/10/09 02:08:49;;;;;;;3.22;1.48;;;;;;;13.98;75.78;101110.72;7391893;19;20373;-59
2023/10/09 02:11:36;;;;;;;3.90;1.55;;;;;;;13.96;76.44;101104.75;7392742;19;20369;-60
2023/10/09 02:14:15;;;;;;;3.53;1.70;;;;;;;13.96;76.69;101094.94;7391702;19;20946;-58
2023/10/09 02:16:42;;;;;;;3.37;1.50;;;;;;;13.97;76.98;101090.41;7392400;19;20373;-59
2023/10/09 02:19:28;;;;;;;4.13;1.50;;;;;;;13.99;77.30;101089.19;7391064;19;20347;-60
2023/10/09 02:21:56;;;;;;;4.77;1.53;;;;;;;14.04;77.67;101085.97;7392237;19;20509;-61
2023/10/09 02:24:28;;;;;;;6.93;2.05;;;;;;;14.10;77.90;101074.56;7217815;19;3455041;-60
2023/10/09 02:29:24;;;;;;;5.03;2.23;;;;;;;14.17;78.48;101037.25;7393658;19;20476;-58
2023/10/09 02:32:00;;;;;;;6.15;2.08;;;;;;;14.19;78.56;101046.72;7394156;19;20376;-60
2023/10/09 02:34:29;;;;;;;4.03;2.10;;;;;;;14.19;78.82;101036.03;7395820;19;20356;-59
2023/10/09 02:37:05;;;;;;;5.55;2.20;;;;;;;14.18;79.30;101049.59;7396500;19;20699;-58
2023/10/09 02:39:43;;;;;;;3.90;2.30;;;;;;;14.17;79.55;101053.28;7392502;19;20372;-56
2023/10/09 02:44:46;;;;;;;5.63;2.10;;;;;;;14.15;80.51;101050.78;7393328;19;20708;-61
2023/10/09 02:47:20;;;;;;;3.80;2.10;;;;;;;14.18;81.02;101055.75;7394150;19;20406;-61
2023/10/09 02:49:50;;;;;;;5.60;2.15;;;;;;;14.23;81.43;101047.19;7395839;19;20419;-61
2023/10/09 02:52:19;;;;;;;4.88;2.20;;;;;;;14.26;81.04;101046.81;7393244;19;20365;-62
2023/10/09 02:54:57;;;;;;;4.50;2.00;;;;;;;14.27;81.40;101027.91;7391265;19;20384;-62
2023/10/09 02:57:27;;;;;;;4.32;2.33;;;;;;;14.29;81.45;101022.41;7385708;19;20360;-62
2023/10/09 02:59:55;;;;;;;4.90;2.50;;;;;;;14.33;81.53;101021.00;7395431;19;20376;-63
2023/10/09 03:02:24;;;;;;;5.87;2.60;;;;;;;14.35;82.04;101010.16;7392718;19;20392;-61
2023/10/09 03:04:55;;;;;;;6.28;2.78;;;;;;;14.38;82.49;101023.09;7393404;19;20661;-63
2023/10/09 03:07:23;;;;;;;4.80;2.38;;;;;;;14.41;82.21;101028.06;7393338;19;20377;-63
2023/10/09 03:09:50;;;;;;;5.03;2.67;;;;;;;14.40;82.35;101011.19;7395304;19;20367;-63
2023/10/09 03:12:18;;;;;;;6.57;2.53;;;;;;;14.41;82.39;101012.03;7392843;19;20404;-63
2023/10/09 03:14:45;;;;;;;6.30;2.50;;;;;;;14.40;82.79;100997.03;7393012;19;20876;-63
2023/10/09 03:17:12;;;;;;;5.95;2.80;;;;;;;14.37;83.14;100984.09;7393903;19;20341;-64
2023/10/09 03:19:40;;;;;;;6.00;2.80;;;;;;;14.36;83.51;100988.59;7390911;19;21719;-63
2023/10/09 03:22:10;;;;;;;5.57;2.40;;;;;;;14.38;83.84;100975.06;7390534;19;20434;-63
2023/10/09 03:24:44;;;;;;;6.55;2.97;;;;;;;14.37;83.97;100957.41;7391073;19;20363;-63
2023/10/09 03:27:16;;;;;;;5.00;2.45;;;;;;;14.39;84.32;100960.69;7391266;19;20356;-63
2023/10/09 03:29:48;;;;;;;5.82;2.60;;;;;;;14.42;84.39;100954.97;7392588;19;20380;-63
2023/10/09 03:32:16;;;;;;;5.38;2.90;;;;;;;14.43;84.38;100956.63;7393207;19;20369;-63
2023/10/09 03:34:43;;;;;;;7.40;3.28;;;;;;;14.44;84.82;100952.94;7394536;19;20348;-63
2023/10/09 03:37:22;;;;;;;7.60;2.85;;;;;;;14.45;84.89;100955.41;7393843;19;20384;-63
2023/10/09 03:39:51;;;;;;;7.28;3.25;;;;;;;14.47;84.80;100953.38;7393479;19;20360;-63
2023/10/09 03:42:22;;;;;;;7.88;3.13;;;;;;;14.48;84.83;100943.50;7391743;19;20677;-63
2023/10/09 03:44:53;;;;;;;6.57;3.60;;;;;;;14.48;85.02;100944.34;7391534;19;20392;-63
2023/10/09 03:47:24;;;;;;;6.50;3.22;;;;;;;14.45;85.16;100941.22;7390234;19;20438;-63
2023/10/09 03:49:53;;;;;;;6.72;3.78;;;;;;;14.44;85.71;100939.59;7392712;19;20368;-63
2023/10/09 03:52:25;;;;;;;6.18;3.55;;;;;;;14.43;85.53;100935.28;7392897;19;20368;-63
2023/10/09 03:54:53;;;;;;;9.18;3.88;;;;;;;14.42;85.90;100934.44;7392837;19;20368;-63
2023/10/09 03:57:20;;;;;;;8.43;3.50;;;;;;;14.42;86.10;100936.28;7393989;19;20357;-63
2023/10/09 03:59:47;;;;;;;8.35;3.83;;;;;;;14.41;86.39;100940.81;7390663;19;20345;-63
2023/10/09 04:02:17;;;;;;;8.45;3.97;;;;;;;14.40;86.69;100957.00;7392310;19;20381;-63
2023/10/09 04:04:47;;;;;;;7.03;3.83;;;;;;;14.40;86.67;100954.34;7392657;19;20368;-64
2023/10/09 04:07:17;;;;;;;7.35;4.03;;;;;;;14.40;87.24;100951.66;7390077;19;20427;-64
2023/10/09 04:10:26;;;;;;;9.83;4.47;;;;;;;14.37;88.32;100957.41;7391718;19;20690;-63
2023/10/09 04:12:39;;;;;;;9.98;4.65;;;;;;;14.37;88.29;100952.06;7391799;19;20726;-63
2023/10/09 04:15:14;;;;;;;12.25;5.70;;;;;;;14.33;88.96;100945.47;7392532;19;20373;-63
2023/10/09 04:17:43;;;;;;;11.02;5.43;;;;;;;14.32;89.75;100949.13;7390656;19;20901;-64
2023/10/09 04:22:59;;;;;;;13.13;6.80;;;;;;;14.27;91.39;100931.84;7389109;19;20670;-63
2023/10/09 04:25:28;;;;;;;10.88;5.97;;;;;;;14.24;92.57;100926.09;7388383;19;20446;-64
2023/10/09 04:28:08;;;;;;;15.88;7.68;;;;;;;14.20;93.52;100928.31;7388772;19;20689;-63
2023/10/09 04:30:59;;;;;;;14.98;7.93;;;;;;;14.18;94.79;100932.22;7391115;19;20369;-64
2023/10/09 04:33:40;;;;;;;17.65;8.75;;;;;;;14.14;95.91;100921.09;7388809;19;20904;-64
2023/10/09 04:41:51;;;;;;;22.60;12.15;;;;;;;14.17;98.26;100938.53;7392803;19;20388;-66
2023/10/09 04:44:19;;;;;;;23.20;13.45;;;;;;;14.17;99.37;100947.38;7390385;19;20712;-67
2023/10/09 04:50:01;;;;;;;23.70;13.73;;;;;;;14.12;100.00;100939.13;7391829;19;20692;-69
2023/10/09 04:55:15;;;;;;;26.05;15.68;;;;;;;14.12;100.00;100928.44;7391954;19;20755;-68
2023/10/09 05:00:35;;;;;;;38.60;19.65;;;;;;;14.12;100.00;100923.13;7387495;19;20400;-68
2023/10/09 05:03:12;;;;;;;39.42;19.88;;;;;;;14.14;100.00;100926.41;7392801;19;20384;-67
2023/10/09 05:08:28;;;;;;;40.75;22.27;;;;;;;14.19;100.00;100929.31;7392003;19;20343;-67
2023/10/09 05:16:28;;;;;;;45.20;23.88;;;;;;;14.30;100.00;100948.50;7393794;19;20351;-68
2023/10/09 05:18:56;;;;;;;49.50;25.35;;;;;;;14.33;100.00;100929.44;7390317;19;20373;-67
2023/10/09 05:27:17;;;;;;;49.00;25.05;;;;;;;14.40;100.00;100957.00;7399875;19;20372;-68
2023/10/09 05:29:59;;;;;;;51.10;26.20;;;;;;;14.44;100.00;100963.59;7399756;19;20348;-68
2023/10/09 05:32:35;;;;;;;48.93;25.90;;;;;;;14.43;100.00;100961.97;7397237;19;20367;-69
2023/10/09 05:37:32;;;;;;;56.00;27.43;;;;;;;14.50;100.00;100978.03;7397325;19;20425;-66
2023/10/09 05:42:42;;;;;;;52.35;25.13;;;;;;;14.56;100.00;100966.63;7391735;19;20437;-67
2023/10/09 06:03:45;;;;;;;54.85;26.95;;;;;;;14.68;100.00;100976.56;7397542;19;20356;-65
2023/10/09 06:06:32;;;;;;;56.47;25.83;;;;;;;14.68;100.00;100997.91;7397339;19;20348;-66
2023/10/09 06:11:49;;;;;;;51.10;25.63;;;;;;;14.67;100.00;100974.91;7392799;19;20876;-67
2023/10/09 06:14:25;;;;;;;42.13;23.10;;;;;;;14.65;100.00;100982.28;7392957;19;20373;-67
2023/10/09 06:17:23;;;;;;;54.22;26.35;;;;;;;14.67;100.00;100982.09;7394772;19;20727;-67
2023/10/09 06:19:49;;;;;;;45.03;23.80;;;;;;;14.68;100.00;100981.91;7393060;19;20435;-66
2023/10/09 06:25:08;;;;;;;48.40;23.58;;;;;;;14.69;100.00;100988.06;7388216;19;20374;-66
2023/10/09 06:27:57;;;;;;;43.03;22.30;;;;;;;14.70;100.00;100987.03;7395796;19;20353;-66
2023/10/09 06:30:26;;;;;;;45.53;21.47;;;;;;;14.71;100.00;100979.84;7391521;19;20345;-66
2023/10/09 06:35:32;;;;;;;46.95;22.15;;;;;;;14.73;100.00;100980.47;7397388;19;20362;-66
2023/10/09 06:46:22;;;;;;;48.10;24.13;;;;;;;14.74;100.00;100990.97;7396501;19;20388;-66
2023/10/09 06:48:46;;;;;;;41.25;22.65;;;;;;;14.74;100.00;101006.97;7393013;19;20348;-66
2023/10/09 06:59:24;;;;;;;46.28;23.67;;;;;;;14.85;100.00;100989.59;7392238;19;20895;-66
2023/10/09 07:07:09;;;;;;;44.75;22.80;;;;;;;14.92;100.00;101000.31;7393945;19;20375;-65
2023/10/09 07:09:42;;;;;;;46.75;23.15;;;;;;;14.91;100.00;101015.53;7393034;19;20752;-65
2023/10/09 07:12:14;;;;;;;44.75;23.15;;;;;;;14.94;100.00;100999.13;7393450;19;20368;-65
2023/10/09 07:27:48;;;;;;;44.85;23.15;;;;;;;15.03;100.00;100963.19;7391038;19;20440;-66
2023/10/09 07:38:35;;;;;;;41.10;22.38;;;;;;;15.11;100.00;100964.03;7393313;19;20368;-66
2023/10/09 07:43:39;;;;;;;42.83;22.10;;;;;;;15.09;100.00;100956.25;7391642;19;20702;-66
2023/10/09 07:48:53;;;;;;;37.78;21.50;;;;;;;15.05;100.00;100950.47;7392614;19;20348;-66
2023/10/09 07:51:30;;;;;;;41.72;21.83;;;;;;;15.07;100.00;100947.59;7393934;19;20389;-67
2023/10/09 07:54:08;;;;;;;42.70;21.73;;;;;;;15.04;100.00;100948.78;7390721;19;20382;-66
2023/10/09 07:56:39;;;;;;;39.45;22.13;;;;;;;15.07;100.00;100939.59;7390257;19;20681;-66
2023/10/09 07:59:12;;;;;;;39.10;21.42;;;;;;;15.08;100.00;100938.56;7392696;19;20382;-66
2023/10/09 08:02:02;;;;;;;39.20;21.73;;;;;;;15.10;100.00;100925.81;7390754;19;20373;-66
2023/10/09 08:04:39;;;;;;;36.35;20.35;;;;;;;15.04;100.00;100919.41;7391160;19;21025;-66
2023/10/09 08:07:09;;;;;;;39.60;21.97;;;;;;;15.12;100.00;100925.63;7393472;19;20387;-66
2023/10/09 08:15:20;;;;;;;41.03;22.98;;;;;;;15.21;100.00;100911.88;7390697;19;20723;-66
2023/10/09 08:17:54;;;;;;;37.90;21.57;;;;;;;15.27;100.00;100910.25;7391303;19;20353;-66
2023/10/09 08:20:26;;;;;;;35.28;21.23;;;;;;;15.31;100.00;100911.50;7389387;19;20389;-66
2023/10/09 08:22:57;;;;;;;35.80;20.38;;;;;;;15.35;100.00;100915.44;7389885;19;20340;-66
2023/10/09 08:25:26;;;;;;;34.15;20.40;;;;;;;15.41;100.00;100921.84;7391258;19;20376;-66
2023/10/09 08:28:44;;;;;;;34.05;18.98;;;;;;;15.43;100.00;100925.94;7390329;19;20888;-66
2023/10/09 08:36:05;;;;;;;32.43;18.70;;;;;;;15.61;100.00;100921.88;7389931;19;20339;-65
2023/10/09 08:38:35;;;;;;;32.72;19.38;;;;;;;15.71;100.00;100919.63;7390698;19;20942;-66
2023/10/09 08:41:22;;;;;;;30.70;18.08;;;;;;;15.75;100.00;100915.56;7391243;19;20760;-65
2023/10/09 08:43:51;;;;;;;32.60;18.20;;;;;;;15.81;100.00;100920.09;7392257;19;20366;-66
2023/10/09 08:46:28;;;;;;;28.60;17.88;;;;;;;15.87;100.00;100927.31;7392127;19;20747;-66
2023/10/09 08:48:58;;;;;;;31.40;17.45;;;;;;;15.95;100.00;100922.78;7391951;19;20368;-65
2023/10/09 08:51:28;;;;;;;27.27;16.60;;;;;;;16.00;100.00;100929.16;7387979;19;20344;-66
2023/10/09 08:53:55;;;;;;;25.70;15.88;;;;;;;16.02;100.00;100939.66;7393731;19;20428;-66
2023/10/09 08:56:22;;;;;;;27.23;16.60;;;;;;;16.03;100.00;100942.13;7396151;19;20377;-65
2023/10/09 08:58:56;;;;;;;24.33;16.25;;;;;;;16.09;100.00;100951.19;7400377;19;20383;-66
2023/10/09 09:01:24;;;;;;;29.30;17.90;;;;;;;16.10;100.00;100956.31;7399089;19;20375;-65
2023/10/09 09:03:55;;;;;;;27.50;16.35;;;;;;;16.10;100.00;100942.13;7399858;19;20356;-65
2023/10/09 09:06:23;;;;;;;23.27;15.52;;;;;;;16.08;100.00;100955.69;7399324;19;20360;-65
2023/10/09 09:08:59;;;;;;;29.27;16.98;;;;;;;16.08;100.00;100938.81;7391040;19;20376;-66
2023/10/09 09:11:30;;;;;;;27.73;17.40;;;;;;;16.11;100.00;100943.78;7397416;19;20719;-66
2023/10/09 09:14:12;;;;;;;27.02;16.88;;;;;;;16.13;100.00;100936.38;7396005;19;20355;-66
2023/10/09 09:16:44;;;;;;;26.73;15.65;;;;;;;16.14;100.00;100929.97;7396728;19;20341;-65
2023/10/09 09:19:17;;;;;;;25.40;16.27;;;;;;;16.17;100.00;100926.91;7396824;19;20360;-66
2023/10/09 09:21:54;;;;;;;25.73;16.58;;;;;;;16.23;100.00;100928.72;7397831;19;20371;-66
2023/10/09 09:26:59;;;;;;;19.17;12.77;;;;;;;16.25;100.00;100942.75;7395235;19;20340;-66
2023/10/09 09:29:36;;;;;;;19.67;12.52;;;;;;;16.28;100.00;100946.88;7398028;19;20356;-66
2023/10/09 09:32:18;;;;;;;21.60;13.20;;;;;;;16.28;100.00;100946.88;7395786;19;20425;-66
2023/10/09 09:35:01;;;;;;;23.45;12.93;;;;;;;16.27;100.00;100954.06;7393049;19;20389;-65
2023/10/09 09:37:29;;;;;;;19.75;13.38;;;;;;;16.29;100.00;100973.41;7397407;19;20398;-66
2023/10/09 09:40:11;;;;;;;20.73;13.07;;;;;;;16.33;100.00;100994.44;7395690;19;20341;-66
2023/10/09 09:42:44;;;;;;;21.30;12.98;;;;;;;16.25;100.00;101009.66;7393807;19;20387;-66
2023/10/09 09:45:12;;;;;;;21.33;13.85;;;;;;;16.24;100.00;100989.28;7398135;19;20364;-66
2023/10/09 09:47:46;;;;;;;26.17;14.48;;;;;;;16.20;100.00;100977.34;7396570;19;20364;-67
2023/10/09 09:50:24;;;;;;;27.90;15.30;;;;;;;16.16;100.00;100965.41;7397666;19;20353;-68
2023/10/09 09:52:55;;;;;;;24.48;15.10;;;;;;;16.09;100.00;100969.94;7395228;19;20469;-69
2023/10/09 09:55:35;;;;;;;25.05;15.98;;;;;;;16.00;100.00;100968.47;7393377;19;21206;-68
2023/10/09 09:58:07;;;;;;;29.63;16.08;;;;;;;15.94;100.00;100966.59;7396100;19;20955;-70
2023/10/09 10:03:22;;;;;;;29.92;16.98;;;;;;;15.80;100.00;100963.91;7393483;19;20408;-69
2023/10/09 10:05:50;;;;;;;30.55;17.40;;;;;;;15.78;100.00;100957.94;7395090;19;20690;-69
2023/10/09 10:08:19;;;;;;;34.70;18.20;;;;;;;15.75;100.00;100971.72;7396410;19;20356;-69
2023/10/09 10:10:49;;;;;;;29.40;16.47;;;;;;;15.73;100.00;100965.75;7395266;19;20361;-68
2023/10/09 10:13:27;;;;;;;28.98;17.73;;;;;;;15.73;100.00;100957.72;7395334;19;20364;-68
2023/10/09 10:16:12;;;;;;;27.85;17.00;;;;;;;15.76;100.00;100959.97;7394350;19;20353;-68
2023/10/09 10:19:07;;;;;;;30.33;16.40;;;;;;;15.78;100.00;100960.59;7397513;19;20436;-68
2023/10/09 10:21:41;;;;;;;30.35;17.90;;;;;;;15.78;100.00;100954.44;7394073;19;20382;-67
2023/10/09 10:24:30;;;;;;;31.88;17.77;;;;;;;15.80;100.00;100953.19;7395841;19;20874;-67
2023/10/09 10:27:09;;;;;;;31.50;17.80;;;;;;;15.80;100.00;100963.91;7393550;19;20352;-67
2023/10/09 10:29:38;;;;;;;28.33;16.58;;;;;;;15.81;100.00;100968.25;7395687;19;20362;-67
2023/10/09 10:32:08;;;;;;;30.90;18.58;;;;;;;15.83;100.00;100951.97;7393085;19;20400;-68
2023/10/09 10:35:06;;;;;;;30.45;17.98;;;;;;;15.85;100.00;100942.75;7394966;19;20368;-66
2023/10/09 10:37:43;;;;;;;29.45;17.15;;;;;;;15.86;100.00;100955.06;7397098;19;20431;-67
2023/10/09 10:40:19;;;;;;;30.17;18.50;;;;;;;15.87;100.00;100959.41;7394593;19;20380;-67
2023/10/09 10:43:09;;;;;;;28.52;17.40;;;;;;;15.86;100.00;100946.22;7394780;19;20437;-67
2023/10/09 10:45:35;;;;;;;26.80;16.85;;;;;;;15.92;100.00;100949.91;7395791;19;20387;-66
2023/10/09 10:48:07;;;;;;;26.98;16.20;;;;;;;15.96;100.00;100953.84;7392819;19;20852;-67
2023/10/09 10:50:35;;;;;;;29.17;17.05;;;;;;;16.02;100.00;100950.34;7392728;19;20368;-66
2023/10/09 10:53:13;;;;;;;27.30;16.25;;;;;;;16.02;100.00;100956.56;7389571;19;20428;-67
2023/10/09 11:01:58;;;;;;;23.65;14.15;;;;;;;16.04;100.00;100953.66;7395332;19;20359;-67
2023/10/09 11:12:44;;;;;;;19.30;12.52;;;;;;;16.06;100.00;100944.38;7391640;19;20336;-67
2023/10/09 11:15:55;;;;;;;19.23;13.82;;;;;;;16.08;100.00;100946.84;7390115;19;20976;-66
2023/10/09 11:18:08;;;;;;;20.05;12.93;;;;;;;16.08;100.00;100941.50;7394516;19;20344;-66
2023/10/09 11:20:36;;;;;;;21.63;14.52;;;;;;;16.20;100.00;100945.22;7395460;19;20348;-66
2023/10/09 11:25:39;;;;;;;19.10;13.60;;;;;;;16.21;100.00;100946.03;7392113;19;20711;-66
2023/10/09 11:28:29;;;;;;;20.92;14.70;;;;;;;16.27;100.00;100946.03;7391471;19;20340;-66
2023/10/09 11:31:07;;;;;;;21.88;14.75;;;;;;;16.30;100.00;100945.63;7388563;19;20352;-66
2023/10/09 11:33:51;;;;;;;20.38;14.02;;;;;;;16.30;100.00;100952.84;7392597;19;20360;-66
2023/10/09 11:36:32;;;;;;;19.92;14.20;;;;;;;16.30;100.00;100942.16;7390359;19;20776;-66
2023/10/09 11:39:18;;;;;;;21.45;14.55;;;;;;;16.28;100.00;100937.00;7394702;19;20369;-66
2023/10/09 11:41:49;;;;;;;21.50;14.65;;;;;;;16.30;100.00;100942.16;7391861;19;20377;-65
2023/10/09 11:44:25;;;;;;;19.52;14.73;;;;;;;16.26;100.00;100941.72;7391291;19;20359;-65
2023/10/09 11:47:13;;;;;;;20.85;15.20;;;;;;;16.26;100.00;100949.75;7392807;19;20750;-66
2023/10/09 11:54:58;;;;;;;22.43;16.47;;;;;;;16.20;100.00;100960.47;7391031;19;20426;-66
2023/10/09 11:57:30;;;;;;;21.63;16.60;;;;;;;16.21;100.00;100954.88;7389432;19;20367;-66
2023/10/09 11:59:59;;;;;;;23.75;16.98;;;;;;;16.21;100.00;100954.88;7392845;19;20396;-66
2023/10/09 12:02:31;;;;;;;22.48;16.50;;;;;;;16.17;100.00;100953.69;7391072;19;20360;-66
2023/10/09 12:04:58;;;;;;;25.67;18.23;;;;;;;16.18;100.00;100957.16;7393295;19;20860;-66
2023/10/09 12:07:25;;;;;;;23.77;16.95;;;;;;;16.18;100.00;100957.16;7392309;19;20344;-66
2023/10/09 12:09:56;;;;;;;21.17;16.40;;;;;;;16.19;100.00;100964.97;7393326;19;20725;-66
2023/10/09 12:12:26;;;;;;;21.40;15.25;;;;;;;16.18;100.00;100966.00;7391336;19;20364;-66
2023/10/09 12:14:53;;;;;;;23.08;16.75;;;;;;;16.24;100.00;100964.38;7391851;19;20364;-66
2023/10/09 12:17:24;;;;;;;24.03;17.27;;;;;;;16.26;100.00;100962.31;7389134;19;20363;-66
2023/10/09 12:19:51;;;;;;;21.58;16.70;;;;;;;16.28;100.00;100955.72;7390957;19;20816;-66
2023/10/09 12:22:21;;;;;;;22.13;16.02;;;;;;;16.29;100.00;100952.00;7392798;19;20424;-66
2023/10/09 12:24:48;;;;;;;21.05;15.38;;;;;;;16.31;100.00;100960.66;7389851;19;20950;-65
2023/10/09 12:27:20;;;;;;;22.33;15.48;;;;;;;16.33;100.00;100957.78;7386438;19;20705;-65
2023/10/09 12:29:48;;;;;;;20.80;16.50;;;;;;;16.34;100.00;100958.59;7395473;19;20723;-66
2023/10/09 12:32:19;;;;;;;23.33;16.48;;;;;;;16.36;100.00;100953.84;7399675;19;20699;-66
2023/10/09 12:34:50;;;;;;;22.98;17.00;;;;;;;16.32;100.00;100964.19;7398794;19;20369;-66
2023/10/09 12:37:20;;;;;;;22.00;16.37;;;;;;;16.31;100.00;100952.63;7398073;19;20372;-66
2023/10/09 12:39:48;;;;;;;19.75;15.00;;;;;;;16.23;100.00;100958.19;7396351;19;20713;-66
2023/10/09 12:42:16;;;;;;;24.63;16.90;;;;;;;16.25;100.00;100958.81;7398330;19;20402;-66
2023/10/09 12:44:44;;;;;;;22.00;17.48;;;;;;;16.23;100.00;100968.88;7398968;19;20360;-66
2023/10/09 12:47:11;;;;;;;21.27;16.33;;;;;;;16.23;100.00;100968.06;7398791;19;20368;-66
2023/10/09 12:49:41;;;;;;;23.17;16.83;;;;;;;16.22;100.00;100961.09;7393175;19;20381;-66
2023/10/09 12:52:17;;;;;;;26.73;18.70;;;;;;;16.28;100.00;100963.75;7394885;19;20693;-66
2023/10/09 12:54:47;;;;;;;24.38;17.13;;;;;;;16.30;100.00;100953.66;7389776;19;20368;-66
2023/10/09 12:57:14;;;;;;;23.80;16.42;;;;;;;16.30;100.00;100959.03;7392307;19;20360;-66
2023/10/09 12:59:48;;;;;;;22.35;17.08;;;;;;;16.32;100.00;100950.78;7390880;19;20343;-66
2023/10/09 13:02:28;;;;;;;24.35;17.17;;;;;;;16.40;100.00;100947.06;7390507;19;20752;-66
2023/10/09 13:04:57;;;;;;;21.07;15.60;;;;;;;16.49;100.00;100945.81;7387844;19;20376;-66
2023/10/09 13:07:25;;;;;;;21.92;16.10;;;;;;;16.67;100.00;100937.97;7371138;19;20352;-66
2023/10/09 13:10:12;;;;;;;22.35;16.67;;;;;;;16.80;100.00;100941.66;7396487;19;20457;-66
2023/10/09 13:12:41;;;;;;;18.27;15.40;;;;;;;16.90;100.00;100958.16;7393942;19;20828;-66
2023/10/09 13:15:09;;;;;;;21.48;15.10;;;;;;;16.94;100.00;100962.06;7394018;19;20899;-66
2023/10/09 13:17:37;;;;;;;17.80;14.50;;;;;;;16.95;100.00;100958.31;7397475;19;20997;-66
2023/10/09 13:20:12;;;;;;;18.48;12.52;;;;;;;16.95;100.00;100961.00;7396402;19;20375;-65
2023/10/09 13:22:43;;;;;;;16.90;13.43;;;;;;;16.97;100.00;100958.13;7395385;19;20393;-66
2023/10/09 13:25:16;;;;;;;15.98;12.63;;;;;;;16.98;100.00;100965.97;7396280;19;20883;-66
2023/10/09 13:28:03;;;;;;;16.17;12.90;;;;;;;17.08;100.00;100958.28;7395167;19;20360;-66
2023/10/09 13:30:38;;;;;;;15.50;12.57;;;;;;;17.07;100.00;100959.31;7395658;19;20849;-66
2023/10/09 13:33:07;;;;;;;17.60;13.68;;;;;;;17.11;100.00;100955.19;7395506;19;20360;-66
2023/10/09 13:35:48;;;;;;;17.80;12.15;;;;;;;17.10;100.00;100958.88;7396664;19;20365;-66
2023/10/09 13:38:15;;;;;;;14.18;12.07;;;;;;;17.08;100.00;100960.97;7396179;19;20852;-66
2023/10/09 13:40:41;;;;;;;16.58;12.80;;;;;;;17.10;100.00;100952.72;7395211;19;20793;-66
2023/10/09 13:43:16;;;;;;;17.00;12.90;;;;;;;17.11;100.00;100954.38;7393844;19;20385;-66
2023/10/09 13:45:49;;;;;;;14.32;11.70;;;;;;;17.03;100.00;100952.75;7393021;19;20360;-66
2023/10/09 13:48:17;;;;;;;15.30;12.80;;;;;;;17.07;100.00;100953.97;7391511;19;20360;-65
2023/10/09 13:50:44;;;;;;;18.35;13.88;;;;;;;17.07;100.00;100951.28;7395198;19;20899;-65
2023/10/09 13:53:12;;;;;;;15.82;12.95;;;;;;;17.04;100.00;100941.00;7394848;19;20673;-65
2023/10/09 13:55:43;;;;;;;17.43;13.90;;;;;;;17.10;100.00;100947.34;7395870;19;20400;-65
2023/10/09 13:58:13;;;;;;;17.42;14.05;;;;;;;17.10;100.00;100942.81;7385646;19;20860;-65
2023/10/09 14:00:46;;;;;;;16.93;14.00;;;;;;;17.15;100.00;100944.03;7386663;19;20375;-65
2023/10/09 14:03:13;;;;;;;16.85;13.15;;;;;;;17.18;100.00;100948.97;7386432;19;20432;-65
2023/10/09 14:05:54;;;;;;;14.77;12.57;;;;;;;17.18;100.00;100944.44;7387683;19;20352;-67
2023/10/09 14:08:28;;;;;;;14.70;12.52;;;;;;;17.15;100.00;100969.00;7389949;19;20356;-65
2023/10/09 14:10:55;;;;;;;14.20;12.07;;;;;;;17.09;100.00;100953.75;7390128;19;20337;-65
2023/10/09 14:13:31;;;;;;;14.77;12.57;;;;;;;17.08;100.00;100955.59;7382762;19;20735;-66
2023/10/09 14:16:01;;;;;;;15.45;12.60;;;;;;;17.10;100.00;100948.16;7392570;19;20359;-66
2023/10/09 14:18:29;;;;;;;14.93;12.77;;;;;;;17.08;100.00;100950.25;7391648;19;20349;-66
2023/10/09 14:21:04;;;;;;;15.70;12.60;;;;;;;17.09;100.00;100943.03;7393105;19;20416;-66
2023/10/09 14:23:34;;;;;;;14.40;12.40;;;;;;;17.07;100.00;100948.59;7395414;19;20357;-66